PORT of ADELAIDE

Страна: Australia Страна: Australia [AU]
Широта / Долгота: -34.80684° / 138.5082° Показать на карте
Местное время:  [UTC +9.5]
UN/LOCODE: AUADL
Судов в порту: 11
Ожидаемые прибытия: 11

Последние прибытия и отбытия


Имя судна
Прибытие (UTC)
Прибытие (LT)
Отправление (UTC)
Отправление (LT)
Vessel Type: Грузовые суда  ACCOLADE II 2014-09-01 06:54:00 2014-09-01 16:24:00 2014-09-01 19:33:00 2014-09-02 05:03:00
Vessel Type: Буксир, Лоцман и т.д.  BURRA 2014-09-01 14:23:00 2014-09-01 23:53:00
Vessel Type: Грузовые суда  ECO DISCOVERY 2014-09-01 14:23:00 2014-09-01 23:53:00
Vessel Type: Буксир, Лоцман и т.д.  BURRA 2014-08-31 03:06:00 2014-08-31 12:36:00 2014-09-01 14:10:00 2014-09-01 23:40:00
Vessel Type: Буксир, Лоцман и т.д.  PILOT VSL NORMANCARR 2014-09-01 14:07:00 2014-09-01 23:37:00
Vessel Type: Буксир, Лоцман и т.д.  PILOT VSL NORMANCARR 2014-09-01 10:40:00 2014-09-01 20:10:00 2014-09-01 12:57:00 2014-09-01 22:27:00
Vessel Type: Грузовые суда  HANJIN LIVERPOOL 2014-08-20 19:11:00 2014-08-21 04:41:00 2014-09-01 12:56:00 2014-09-01 22:26:00
Vessel Type: Буксир, Лоцман и т.д.  TINGARI 2014-09-01 11:12:00 2014-09-01 20:42:00
Vessel Type: Грузовые суда  MSC GENEVA 2014-09-01 11:10:00 2014-09-01 20:40:00
Vessel Type: Буксир, Лоцман и т.д.  BURRA 2014-08-31 03:06:00 2014-08-31 12:36:00 2014-09-01 11:02:00 2014-09-01 20:32:00

Ожидаемые прибытия


Имя судна
Scheduled Arrival (UTC)
Запланированное прибытие (местное время)
Ожидаемое прибытие (ОП) (UTC)
Ожидаемое прибытие (местное время)
Vessel Type: Грузовые суда  OOCL NORFOLK 2014-09-02 09:30:00 2014-09-02 19:00:00 2014-09-02 10:17:00 2014-09-02 19:47:00
Vessel Type: Грузовые суда  SUNLIGHT ACE 2014-09-02 19:00:00 2014-09-03 04:30:00 2014-09-02 07:06:00 2014-09-02 16:36:00
Vessel Type: Грузовые суда  NORDIC DALIAN 2014-09-02 19:00:00 2014-09-03 04:30:00 2014-09-02 11:20:00 2014-09-02 20:50:00
Vessel Type: Грузовые суда  IONIAN EAGLE 2014-09-03 06:00:00 2014-09-03 15:30:00 2014-09-02 19:04:00 2014-09-03 04:34:00
Vessel Type: Танкеры  AXIOS 2014-09-03 15:15:00 2014-09-04 00:45:00
Vessel Type: Грузовые суда  MSC PATRICIA 2014-09-04 01:30:00 2014-09-04 11:00:00 2014-09-04 08:24:00 2014-09-04 17:54:00
Vessel Type: Грузовые суда  MANILA EXPRESS 2014-09-04 04:30:00 2014-09-04 14:00:00 2014-09-03 22:09:00 2014-09-04 07:39:00
Vessel Type: Грузовые суда  OOCL BRISBANE 2014-09-06 09:00:00 2014-09-06 18:30:00 2014-09-05 17:32:00 2014-09-06 03:02:00
Vessel Type: Грузовые суда  PORT PHILLIP 2014-09-07 16:00:00 2014-09-08 01:30:00 2014-09-06 16:10:00 2014-09-07 01:40:00
Vessel Type: Грузовые суда  ALAM SINAR 2014-09-09 07:30:00 2014-09-09 17:00:00 2014-09-08 12:14:00 2014-09-08 21:44:00

Wind Forecast


    
Время (UTC)
Скорость
Direction
Temperature
2014-09-01 21:00:00 16 knots 205° 12°C
2014-09-02 00:00:00 13 knots 195° 13°C
2014-09-02 03:00:00 12 knots 204° 14°C
2014-09-02 06:00:00 12 knots 201° 14°C
2014-09-02 09:00:00 9 knots 186° 12°C
2014-09-02 12:00:00 7 knots 150° 11°C
2014-09-02 15:00:00 5 knots 140° 11°C
2014-09-02 18:00:00 5 knots 86° 10°C
2014-09-02 21:00:00 7 knots 56° 9°C
2014-09-03 00:00:00 7 knots 35° 11°C
2014-09-03 03:00:00 6 knots 14°C
2014-09-03 06:00:00 6 knots 348° 15°C
2014-09-03 09:00:00 6 knots 315° 14°C
2014-09-03 12:00:00 5 knots 26° 13°C
2014-09-03 15:00:00 10 knots 35° 12°C
2014-09-03 18:00:00 9 knots 26° 12°C
2014-09-03 21:00:00 11 knots 60° 11°C